createdAt,value
2019-02-03T09:30:10.457Z,39.30
2019-02-03T09:32:39.067Z,44.00
2019-02-03T09:35:10.089Z,42.80
2019-02-03T09:37:38.789Z,41.73
2019-02-03T09:40:18.492Z,39.20
2019-02-03T09:42:47.346Z,39.43
2019-02-03T09:45:21.055Z,45.53
2019-02-03T09:47:49.914Z,40.77
2019-02-03T09:50:20.707Z,41.43
2019-02-03T09:52:50.001Z,48.03
2019-02-03T09:55:18.910Z,43.73
2019-02-03T09:57:47.721Z,47.43
2019-02-03T10:00:24.563Z,39.30
2019-02-03T10:02:54.149Z,44.93
2019-02-03T10:05:23.193Z,42.23
2019-02-03T10:07:51.736Z,45.17
2019-02-03T10:10:29.030Z,43.80
2019-02-03T10:12:57.925Z,41.53
2019-02-03T10:15:26.433Z,42.37
2019-02-03T10:17:55.047Z,39.73
2019-02-03T10:20:24.260Z,38.53
2019-02-03T10:22:52.846Z,38.93
2019-02-03T10:25:23.821Z,46.17
2019-02-03T10:27:52.544Z,44.10
2019-02-03T10:30:23.255Z,40.97
2019-02-03T10:32:52.096Z,45.00
2019-02-03T10:35:31.263Z,41.27
2019-02-03T10:38:00.123Z,42.60
2019-02-03T10:40:34.212Z,40.57
2019-02-03T10:43:03.539Z,41.63
2019-02-03T10:45:32.230Z,44.90
2019-02-03T10:48:01.004Z,39.40
2019-02-03T10:50:32.551Z,42.30
2019-02-03T10:53:02.468Z,41.83
2019-02-03T10:55:31.454Z,43.57
2019-02-03T10:58:00.016Z,42.77
2019-02-03T11:00:34.108Z,45.87
2019-02-03T11:03:02.816Z,48.13
2019-02-03T11:05:34.096Z,42.30
2019-02-03T11:08:02.745Z,46.23
2019-02-03T11:10:31.467Z,47.27
2019-02-03T11:13:00.126Z,45.20
2019-02-03T11:15:28.821Z,43.97
2019-02-03T11:17:57.613Z,44.20
2019-02-03T11:20:28.363Z,46.37
2019-02-03T11:22:57.604Z,47.30
2019-02-03T11:25:28.466Z,54.20
2019-02-03T11:27:57.245Z,48.37
2019-02-03T11:30:30.437Z,51.70
2019-02-03T11:33:05.184Z,50.17
2019-02-03T11:35:32.208Z,49.00
2019-02-03T11:38:00.921Z,55.93
2019-02-03T11:40:34.807Z,53.97
2019-02-03T11:43:04.100Z,48.67
2019-02-03T11:45:38.425Z,45.33
2019-02-03T11:48:10.127Z,47.27
2019-02-03T11:50:41.020Z,46.03
2019-02-03T11:53:11.882Z,115.67
2019-02-03T11:55:40.620Z,111.17
2019-02-03T11:58:10.242Z,148.13
2019-02-03T12:00:39.173Z,120.00
2019-02-03T12:03:08.366Z,116.57
2019-02-03T12:05:37.053Z,122.37
2019-02-03T12:08:06.497Z,157.23
2019-02-03T12:10:35.137Z,86.70
2019-02-03T12:13:04.436Z,58.13
2019-02-03T12:15:33.540Z,63.30
2019-02-03T12:18:02.051Z,53.00
2019-02-03T12:20:31.070Z,65.70
2019-02-03T12:23:00.537Z,75.33
2019-02-03T12:25:34.432Z,58.60
2019-02-03T12:28:03.379Z,50.77
2019-02-03T12:30:33.182Z,44.63
2019-02-03T12:33:03.493Z,41.47
2019-02-03T12:35:32.078Z,34.13
2019-02-03T12:38:00.947Z,36.00
2019-02-03T12:40:34.909Z,37.10
2019-02-03T12:43:03.660Z,35.30
2019-02-03T12:45:32.216Z,33.83
2019-02-03T12:48:00.919Z,32.53
2019-02-03T12:50:31.502Z,33.00
2019-02-03T12:53:00.579Z,34.43
2019-02-03T12:55:31.014Z,28.90
2019-02-03T12:57:59.557Z,29.00
2019-02-03T13:00:30.447Z,32.17
2019-02-03T13:02:59.375Z,30.87
2019-02-03T13:05:29.048Z,30.87
2019-02-03T13:07:59.178Z,27.47
2019-02-03T13:10:35.071Z,27.97
2019-02-03T13:13:03.708Z,31.57
2019-02-03T13:15:37.604Z,26.07
2019-02-03T13:18:06.850Z,27.30
2019-02-03T13:20:36.170Z,26.23
2019-02-03T13:23:05.667Z,27.10
2019-02-03T13:25:34.338Z,27.60
2019-02-03T13:28:02.921Z,25.77
2019-02-03T13:30:33.823Z,31.53
2019-02-03T13:33:02.372Z,33.60
2019-02-03T13:35:30.923Z,43.50
2019-02-03T13:37:59.425Z,43.07
2019-02-03T13:40:28.161Z,52.30
2019-02-03T13:42:56.708Z,38.83
2019-02-03T13:45:26.515Z,35.57
2019-02-03T13:47:57.725Z,44.73
2019-02-03T13:50:27.532Z,42.77
2019-02-03T13:52:57.141Z,69.67
2019-02-03T13:55:26.550Z,72.17
2019-02-03T13:57:55.347Z,62.67
2019-02-03T14:00:27.383Z,56.10
2019-02-03T14:02:56.218Z,57.53
2019-02-03T14:05:24.906Z,58.63
2019-02-03T14:07:53.624Z,70.80
2019-02-03T14:10:26.149Z,55.17
2019-02-03T14:12:55.186Z,45.50
2019-02-03T14:15:23.975Z,37.03
2019-02-03T14:17:52.552Z,31.33
2019-02-03T14:20:23.832Z,32.73
2019-02-03T14:22:52.460Z,31.03
2019-02-03T14:25:22.633Z,30.47
2019-02-03T14:27:51.460Z,28.67
2019-02-03T14:30:40.578Z,27.83
2019-02-03T14:33:04.648Z,29.90
2019-02-03T14:35:34.082Z,27.27
2019-02-03T14:38:03.421Z,27.60
2019-02-03T14:40:32.138Z,29.50
2019-02-03T14:43:02.189Z,30.43
2019-02-03T14:45:31.122Z,25.80
2019-02-03T14:47:59.751Z,23.43
2019-02-03T14:50:28.379Z,28.37
2019-02-03T14:52:59.861Z,24.77
2019-02-03T14:55:31.393Z,21.93
2019-02-03T14:58:00.279Z,25.70
2019-02-03T15:00:33.776Z,26.50
2019-02-03T15:03:04.779Z,25.33
2019-02-03T15:05:33.348Z,23.37
2019-02-03T15:08:01.996Z,28.10
2019-02-03T15:10:30.589Z,23.57
2019-02-03T15:12:59.178Z,26.27
2019-02-03T15:15:29.388Z,22.00
2019-02-03T15:17:58.359Z,22.47
2019-02-03T15:20:27.583Z,24.13
2019-02-03T15:22:56.135Z,23.87
2019-02-03T15:25:24.662Z,20.63
2019-02-03T15:27:53.296Z,21.00
2019-02-03T15:30:31.004Z,24.73
2019-02-03T15:32:59.486Z,24.87
2019-02-03T15:35:27.957Z,21.70
2019-02-03T15:37:56.593Z,24.27
2019-02-03T15:40:25.617Z,22.53
2019-02-03T15:42:54.533Z,21.87
2019-02-03T15:45:25.932Z,22.30
2019-02-03T15:47:54.556Z,21.37
2019-02-03T15:50:25.633Z,23.83
2019-02-03T15:52:54.710Z,20.37
2019-02-03T15:55:28.915Z,23.73
2019-02-03T15:57:57.615Z,23.30
2019-02-03T16:00:37.697Z,24.77
2019-02-03T16:03:08.617Z,22.20
2019-02-03T16:05:37.408Z,20.97
2019-02-03T16:08:06.809Z,21.47
2019-02-03T16:10:35.379Z,22.73
2019-02-03T16:13:04.644Z,22.80
2019-02-03T16:15:33.207Z,23.30
2019-02-03T16:18:01.666Z,22.40
2019-02-03T16:20:30.779Z,23.43
2019-02-03T16:23:00.591Z,23.20
2019-02-03T16:25:29.321Z,28.57
2019-02-03T16:27:58.133Z,25.37
2019-02-03T16:30:32.331Z,24.93
2019-02-03T16:33:01.323Z,26.17
2019-02-03T16:35:29.924Z,26.37
2019-02-03T16:37:58.481Z,30.80
2019-02-03T16:40:29.566Z,29.53
2019-02-03T16:42:58.194Z,33.03
2019-02-03T16:45:26.746Z,28.50
2019-02-03T16:47:55.316Z,29.00
2019-02-03T16:50:31.546Z,29.33
2019-02-03T16:53:05.007Z,27.23
2019-02-03T16:55:33.623Z,28.20
2019-02-03T16:58:02.105Z,25.90
2019-02-03T17:00:31.900Z,28.57
2019-02-03T17:03:00.768Z,27.17
2019-02-03T17:05:31.110Z,25.70
2019-02-03T17:08:02.062Z,27.60
2019-02-03T17:10:30.666Z,33.13
2019-02-03T17:12:59.372Z,30.33
2019-02-03T17:15:36.993Z,30.63
2019-02-03T17:18:08.368Z,28.30
2019-02-03T17:20:36.911Z,26.83
2019-02-03T17:23:05.865Z,27.90
2019-02-03T17:25:40.225Z,26.07
2019-02-03T17:28:08.905Z,29.23
2019-02-03T17:30:37.368Z,22.03
2019-02-03T17:33:06.111Z,30.00
2019-02-03T17:35:35.348Z,29.43
2019-02-03T17:38:04.186Z,28.93
2019-02-03T17:40:32.665Z,26.20
2019-02-03T17:43:01.154Z,27.77
2019-02-03T17:45:29.866Z,27.13
2019-02-03T17:47:58.353Z,25.67
2019-02-03T17:50:31.049Z,29.97
2019-02-03T17:52:59.726Z,27.83
2019-02-03T17:55:28.534Z,25.57
2019-02-03T17:57:57.438Z,26.70
2019-02-03T18:00:29.615Z,24.90
2019-02-03T18:02:58.163Z,28.87
2019-02-03T18:05:26.738Z,24.17
2019-02-03T18:07:55.299Z,23.80
2019-02-03T18:10:24.033Z,24.70
2019-02-03T18:12:52.933Z,24.57
2019-02-03T18:15:21.703Z,24.57
2019-02-03T18:17:50.269Z,21.03
2019-02-03T18:20:26.607Z,24.97
2019-02-03T18:22:55.300Z,24.20
2019-02-03T18:25:24.229Z,21.47
2019-02-03T18:27:52.822Z,24.20
2019-02-03T18:30:29.732Z,21.87
2019-02-03T18:32:59.256Z,21.40
2019-02-03T18:35:27.791Z,25.30
2019-02-03T18:38:01.773Z,21.73
2019-02-03T18:40:30.314Z,20.87
2019-02-03T18:43:01.594Z,23.00
2019-02-03T18:45:29.609Z,23.73
2019-02-03T18:47:58.099Z,24.27
2019-02-03T18:50:26.572Z,25.87
2019-02-03T18:52:55.061Z,26.67
2019-02-03T18:55:38.765Z,22.43
2019-02-03T18:58:07.870Z,22.90
2019-02-03T19:00:38.017Z,29.57
2019-02-03T19:03:08.825Z,32.63
2019-02-03T19:05:39.634Z,32.43
2019-02-03T19:08:08.173Z,40.63
2019-02-03T19:10:36.679Z,37.83
2019-02-03T19:13:05.958Z,41.03
2019-02-03T19:15:35.207Z,45.50
2019-02-03T19:18:04.125Z,47.87
2019-02-03T19:20:35.391Z,45.10
2019-02-03T19:23:04.508Z,34.80
2019-02-03T19:25:32.995Z,46.77
2019-02-03T19:28:01.568Z,38.80
2019-02-03T19:30:30.509Z,39.97
2019-02-03T19:32:58.968Z,34.43
2019-02-03T19:35:30.029Z,38.40
2019-02-03T19:37:58.567Z,30.67
2019-02-03T19:40:31.536Z,29.83
2019-02-03T19:43:00.085Z,29.17
2019-02-03T19:45:30.851Z,28.30
2019-02-03T19:47:59.772Z,26.00
2019-02-03T19:50:30.453Z,28.37
2019-02-03T19:52:59.026Z,23.37
2019-02-03T19:55:27.638Z,25.87
2019-02-03T19:57:56.229Z,23.73
2019-02-03T20:00:27.332Z,22.70
2019-02-03T20:02:56.459Z,22.90
2019-02-03T20:05:25.162Z,24.73
2019-02-03T20:07:54.043Z,22.77
2019-02-03T20:10:30.986Z,25.53
2019-02-03T20:13:01.685Z,25.10
2019-02-03T20:15:29.831Z,23.03
2019-02-03T20:17:58.314Z,26.40
2019-02-03T20:20:31.835Z,23.90
2019-02-03T20:23:00.580Z,25.57
2019-02-03T20:25:29.465Z,21.17
2019-02-03T20:27:58.201Z,22.33
2019-02-03T20:30:38.111Z,24.97
2019-02-03T20:32:59.081Z,24.27
2019-02-03T20:35:29.290Z,22.50
2019-02-03T20:37:58.545Z,24.67
2019-02-03T20:40:32.257Z,22.50
2019-02-03T20:43:00.971Z,22.40
2019-02-03T20:45:30.480Z,22.60
2019-02-03T20:47:59.140Z,22.80
2019-02-03T20:50:28.182Z,24.90
2019-02-03T20:52:57.273Z,25.60
2019-02-03T20:55:25.910Z,23.23
2019-02-03T20:57:54.406Z,23.53
2019-02-03T21:00:31.180Z,19.60
2019-02-03T21:02:59.795Z,21.53
2019-02-03T21:05:28.451Z,21.90
2019-02-03T21:07:57.259Z,23.90
2019-02-03T21:10:27.606Z,22.57
2019-02-03T21:12:57.272Z,23.20
2019-02-03T21:15:33.721Z,23.97
2019-02-03T21:17:57.800Z,23.07
2019-02-03T21:20:32.303Z,23.37
2019-02-03T21:23:01.096Z,22.53
2019-02-03T21:25:29.818Z,22.93
2019-02-03T21:27:58.434Z,19.17
2019-02-03T21:30:29.437Z,19.00
2019-02-03T21:32:58.352Z,17.03
2019-02-03T21:35:26.915Z,18.53
2019-02-03T21:37:55.533Z,17.53
2019-02-03T21:40:26.123Z,16.07
2019-02-03T21:42:55.108Z,17.00
2019-02-03T21:45:24.020Z,16.93
2019-02-03T21:47:52.926Z,17.43
2019-02-03T21:50:28.803Z,17.27
2019-02-03T21:52:57.527Z,16.47
2019-02-03T21:55:26.433Z,18.60
2019-02-03T21:57:55.204Z,18.17
2019-02-03T22:00:26.486Z,16.93
2019-02-03T22:02:55.095Z,14.83
2019-02-03T22:05:23.922Z,17.83
2019-02-03T22:07:52.599Z,14.00
2019-02-03T22:10:23.743Z,16.60
2019-02-03T22:12:52.609Z,17.77
2019-02-03T22:15:21.396Z,17.70
2019-02-03T22:17:50.085Z,16.40
2019-02-03T22:20:20.377Z,15.13
2019-02-03T22:22:48.950Z,16.93
2019-02-03T22:25:17.556Z,17.43
2019-02-03T22:27:46.138Z,16.23
2019-02-03T22:30:19.951Z,15.67
2019-02-03T22:32:48.678Z,19.40
2019-02-03T22:35:17.324Z,15.90
2019-02-03T22:37:45.792Z,17.20
2019-02-03T22:40:19.383Z,16.93
2019-02-03T22:42:48.024Z,22.07
2019-02-03T22:45:21.585Z,20.10
2019-02-03T22:47:50.282Z,15.43
2019-02-03T22:50:27.467Z,16.83
2019-02-03T22:52:56.891Z,16.27
2019-02-03T22:55:25.590Z,15.57
2019-02-03T22:57:54.187Z,14.10
2019-02-03T23:00:51.949Z,15.87
2019-02-03T23:03:23.695Z,13.07
2019-02-03T23:05:53.395Z,13.33
2019-02-03T23:08:21.939Z,12.63
2019-02-03T23:10:50.667Z,12.77
2019-02-03T23:13:19.546Z,12.23
2019-02-03T23:15:48.624Z,12.03
2019-02-03T23:18:17.098Z,12.40
2019-02-03T23:20:45.595Z,12.47
2019-02-03T23:23:14.158Z,11.80
2019-02-03T23:25:42.639Z,14.70
2019-02-03T23:28:11.173Z,11.40
2019-02-03T23:30:40.448Z,11.77
2019-02-03T23:33:08.914Z,10.97
2019-02-03T23:35:37.591Z,12.20
2019-02-03T23:38:06.210Z,11.27
2019-02-03T23:40:34.802Z,9.57
2019-02-03T23:43:03.764Z,9.00
2019-02-03T23:45:32.820Z,10.67
2019-02-03T23:48:01.336Z,11.43
2019-02-03T23:50:29.841Z,11.13
2019-02-03T23:52:58.476Z,10.73
2019-02-03T23:55:27.078Z,9.93
2019-02-03T23:57:55.609Z,9.13
